sensor_id;sensor_type;location;lat;lon;timestamp;P1;durP1;ratioP1;P2;durP2;ratioP2
16839;SDS011;8536;52.150;11.572;2023-03-04T00:01:14;13.17;;;8.87;;
16839;SDS011;8536;52.150;11.572;2023-03-04T00:03:41;18.33;;;9.40;;
16839;SDS011;8536;52.150;11.572;2023-03-04T00:06:08;15.93;;;7.90;;
16839;SDS011;8536;52.150;11.572;2023-03-04T00:08:34;12.93;;;6.90;;
16839;SDS011;8536;52.150;11.572;2023-03-04T00:11:01;16.00;;;7.60;;
16839;SDS011;8536;52.150;11.572;2023-03-04T00:13:27;14.70;;;6.60;;
16839;SDS011;8536;52.150;11.572;2023-03-04T00:15:54;17.13;;;7.23;;
16839;SDS011;8536;52.150;11.572;2023-03-04T00:18:21;14.43;;;6.57;;
16839;SDS011;8536;52.150;11.572;2023-03-04T00:20:47;15.97;;;7.97;;
16839;SDS011;8536;52.150;11.572;2023-03-04T00:23:15;13.20;;;7.50;;
16839;SDS011;8536;52.150;11.572;2023-03-04T00:25:42;14.80;;;7.70;;
16839;SDS011;8536;52.150;11.572;2023-03-04T00:28:09;20.00;;;8.73;;
16839;SDS011;8536;52.150;11.572;2023-03-04T00:30:36;15.50;;;7.80;;
16839;SDS011;8536;52.150;11.572;2023-03-04T00:33:02;13.53;;;8.00;;
16839;SDS011;8536;52.150;11.572;2023-03-04T00:35:29;18.10;;;7.63;;
16839;SDS011;8536;52.150;11.572;2023-03-04T00:37:55;19.77;;;7.40;;
16839;SDS011;8536;52.150;11.572;2023-03-04T00:40:22;18.50;;;8.17;;
16839;SDS011;8536;52.150;11.572;2023-03-04T00:42:49;17.73;;;7.70;;
16839;SDS011;8536;52.150;11.572;2023-03-04T00:45:15;16.70;;;8.10;;
16839;SDS011;8536;52.150;11.572;2023-03-04T00:47:43;15.63;;;7.57;;
16839;SDS011;8536;52.150;11.572;2023-03-04T00:50:10;14.57;;;6.87;;
16839;SDS011;8536;52.150;11.572;2023-03-04T00:52:37;12.27;;;6.70;;
16839;SDS011;8536;52.150;11.572;2023-03-04T00:55:03;17.73;;;7.47;;
16839;SDS011;8536;52.150;11.572;2023-03-04T00:57:31;18.17;;;7.60;;
16839;SDS011;8536;52.150;11.572;2023-03-04T00:59:57;14.57;;;7.60;;
16839;SDS011;8536;52.150;11.572;2023-03-04T01:02:24;15.17;;;7.10;;
16839;SDS011;8536;52.150;11.572;2023-03-04T01:04:51;17.80;;;7.63;;
16839;SDS011;8536;52.150;11.572;2023-03-04T01:07:17;18.93;;;6.50;;
16839;SDS011;8536;52.150;11.572;2023-03-04T01:09:44;19.23;;;6.27;;
16839;SDS011;8536;52.150;11.572;2023-03-04T01:12:10;13.53;;;6.03;;
16839;SDS011;8536;52.150;11.572;2023-03-04T01:14:37;13.63;;;5.80;;
16839;SDS011;8536;52.150;11.572;2023-03-04T01:17:03;17.10;;;5.30;;
16839;SDS011;8536;52.150;11.572;2023-03-04T01:19:30;16.63;;;5.50;;
16839;SDS011;8536;52.150;11.572;2023-03-04T01:21:57;10.97;;;5.27;;
16839;SDS011;8536;52.150;11.572;2023-03-04T01:24:23;15.07;;;5.20;;
16839;SDS011;8536;52.150;11.572;2023-03-04T01:26:50;18.20;;;5.67;;
16839;SDS011;8536;52.150;11.572;2023-03-04T01:29:16;17.43;;;4.93;;
16839;SDS011;8536;52.150;11.572;2023-03-04T01:31:43;11.50;;;4.40;;
16839;SDS011;8536;52.150;11.572;2023-03-04T01:34:09;17.37;;;4.60;;
16839;SDS011;8536;52.150;11.572;2023-03-04T01:36:36;14.97;;;4.20;;
16839;SDS011;8536;52.150;11.572;2023-03-04T01:39:03;11.93;;;3.50;;
16839;SDS011;8536;52.150;11.572;2023-03-04T01:41:30;14.77;;;3.90;;
16839;SDS011;8536;52.150;11.572;2023-03-04T01:43:57;15.20;;;3.97;;
16839;SDS011;8536;52.150;11.572;2023-03-04T01:46:28;9.87;;;3.70;;
16839;SDS011;8536;52.150;11.572;2023-03-04T01:48:56;12.03;;;3.53;;
16839;SDS011;8536;52.150;11.572;2023-03-04T01:51:23;12.03;;;3.93;;
16839;SDS011;8536;52.150;11.572;2023-03-04T01:53:49;11.17;;;3.97;;
16839;SDS011;8536;52.150;11.572;2023-03-04T01:56:22;12.20;;;3.77;;
16839;SDS011;8536;52.150;11.572;2023-03-04T02:01:44;11.13;;;3.33;;
16839;SDS011;8536;52.150;11.572;2023-03-04T02:04:12;11.60;;;3.30;;
16839;SDS011;8536;52.150;11.572;2023-03-04T02:06:39;14.07;;;4.43;;
16839;SDS011;8536;52.150;11.572;2023-03-04T02:09:07;14.17;;;3.67;;
16839;SDS011;8536;52.150;11.572;2023-03-04T02:11:34;16.37;;;3.67;;
16839;SDS011;8536;52.150;11.572;2023-03-04T02:14:01;10.17;;;3.27;;
16839;SDS011;8536;52.150;11.572;2023-03-04T02:16:28;12.17;;;3.10;;
16839;SDS011;8536;52.150;11.572;2023-03-04T02:18:54;12.10;;;3.70;;
16839;SDS011;8536;52.150;11.572;2023-03-04T02:21:25;11.47;;;2.80;;
16839;SDS011;8536;52.150;11.572;2023-03-04T02:23:56;16.63;;;3.47;;
16839;SDS011;8536;52.150;11.572;2023-03-04T02:26:29;11.47;;;3.77;;
16839;SDS011;8536;52.150;11.572;2023-03-04T02:28:57;13.20;;;3.70;;
16839;SDS011;8536;52.150;11.572;2023-03-04T02:36:51;9.17;;;3.10;;
16839;SDS011;8536;52.150;11.572;2023-03-04T02:41:49;7.70;;;2.43;;
16839;SDS011;8536;52.150;11.572;2023-03-04T02:44:18;13.83;;;3.27;;
16839;SDS011;8536;52.150;11.572;2023-03-04T02:46:49;11.93;;;3.27;;
16839;SDS011;8536;52.150;11.572;2023-03-04T02:49:16;8.47;;;2.80;;
16839;SDS011;8536;52.150;11.572;2023-03-04T02:51:43;14.20;;;3.03;;
16839;SDS011;8536;52.150;11.572;2023-03-04T02:54:14;8.93;;;3.17;;
16839;SDS011;8536;52.150;11.572;2023-03-04T02:56:48;12.70;;;3.07;;
16839;SDS011;8536;52.150;11.572;2023-03-04T02:59:16;13.33;;;2.73;;
16839;SDS011;8536;52.150;11.572;2023-03-04T03:01:43;8.07;;;2.57;;
16839;SDS011;8536;52.150;11.572;2023-03-04T03:04:10;5.40;;;2.23;;
16839;SDS011;8536;52.150;11.572;2023-03-04T03:06:38;8.07;;;2.13;;
16839;SDS011;8536;52.150;11.572;2023-03-04T03:09:05;11.23;;;2.80;;
16839;SDS011;8536;52.150;11.572;2023-03-04T03:11:32;12.03;;;2.67;;
16839;SDS011;8536;52.150;11.572;2023-03-04T03:13:59;7.60;;;2.47;;
16839;SDS011;8536;52.150;11.572;2023-03-04T03:16:26;10.67;;;2.23;;
16839;SDS011;8536;52.150;11.572;2023-03-04T03:18:53;11.77;;;2.83;;
16839;SDS011;8536;52.150;11.572;2023-03-04T03:21:19;11.73;;;2.33;;
16839;SDS011;8536;52.150;11.572;2023-03-04T03:23:46;14.47;;;3.40;;
16839;SDS011;8536;52.150;11.572;2023-03-04T03:26:12;8.40;;;2.33;;
16839;SDS011;8536;52.150;11.572;2023-03-04T03:28:39;10.03;;;2.47;;
16839;SDS011;8536;52.150;11.572;2023-03-04T03:31:06;14.10;;;2.30;;
16839;SDS011;8536;52.150;11.572;2023-03-04T03:33:33;10.60;;;2.63;;
16839;SDS011;8536;52.150;11.572;2023-03-04T03:35:59;12.20;;;2.43;;
16839;SDS011;8536;52.150;11.572;2023-03-04T03:38:26;9.23;;;2.17;;
16839;SDS011;8536;52.150;11.572;2023-03-04T03:40:53;12.53;;;3.20;;
16839;SDS011;8536;52.150;11.572;2023-03-04T03:43:19;9.97;;;2.13;;
16839;SDS011;8536;52.150;11.572;2023-03-04T03:45:46;7.70;;;2.43;;
16839;SDS011;8536;52.150;11.572;2023-03-04T03:48:13;5.87;;;2.27;;
16839;SDS011;8536;52.150;11.572;2023-03-04T03:50:39;5.57;;;2.37;;
16839;SDS011;8536;52.150;11.572;2023-03-04T03:53:06;12.40;;;2.30;;
16839;SDS011;8536;52.150;11.572;2023-03-04T03:55:32;9.43;;;2.47;;
16839;SDS011;8536;52.150;11.572;2023-03-04T03:57:59;11.80;;;2.27;;
16839;SDS011;8536;52.150;11.572;2023-03-04T04:00:25;9.40;;;2.03;;
16839;SDS011;8536;52.150;11.572;2023-03-04T04:02:53;12.50;;;1.90;;
16839;SDS011;8536;52.150;11.572;2023-03-04T04:05:20;7.97;;;2.27;;
16839;SDS011;8536;52.150;11.572;2023-03-04T04:07:46;9.13;;;2.00;;
16839;SDS011;8536;52.150;11.572;2023-03-04T04:10:13;8.63;;;2.23;;
16839;SDS011;8536;52.150;11.572;2023-03-04T04:12:39;9.30;;;2.00;;
16839;SDS011;8536;52.150;11.572;2023-03-04T04:15:06;5.13;;;1.90;;
16839;SDS011;8536;52.150;11.572;2023-03-04T04:17:35;7.87;;;2.20;;
16839;SDS011;8536;52.150;11.572;2023-03-04T04:20:02;7.83;;;3.23;;
16839;SDS011;8536;52.150;11.572;2023-03-04T04:22:28;6.63;;;2.13;;
16839;SDS011;8536;52.150;11.572;2023-03-04T04:24:55;5.10;;;1.90;;
16839;SDS011;8536;52.150;11.572;2023-03-04T04:27:21;6.77;;;2.03;;
16839;SDS011;8536;52.150;11.572;2023-03-04T04:29:48;7.33;;;2.23;;
16839;SDS011;8536;52.150;11.572;2023-03-04T04:32:14;8.53;;;2.63;;
16839;SDS011;8536;52.150;11.572;2023-03-04T04:34:41;6.83;;;1.80;;
16839;SDS011;8536;52.150;11.572;2023-03-04T04:37:08;7.30;;;2.20;;
16839;SDS011;8536;52.150;11.572;2023-03-04T04:39:35;6.17;;;2.17;;
16839;SDS011;8536;52.150;11.572;2023-03-04T04:42:02;6.83;;;2.20;;
16839;SDS011;8536;52.150;11.572;2023-03-04T04:44:28;6.87;;;2.10;;
16839;SDS011;8536;52.150;11.572;2023-03-04T04:46:55;5.63;;;2.00;;
16839;SDS011;8536;52.150;11.572;2023-03-04T04:49:22;9.17;;;1.90;;
16839;SDS011;8536;52.150;11.572;2023-03-04T04:51:48;6.93;;;2.00;;
16839;SDS011;8536;52.150;11.572;2023-03-04T04:54:15;6.67;;;1.77;;
16839;SDS011;8536;52.150;11.572;2023-03-04T04:56:42;6.43;;;2.00;;
16839;SDS011;8536;52.150;11.572;2023-03-04T04:59:09;11.00;;;2.20;;
16839;SDS011;8536;52.150;11.572;2023-03-04T05:01:35;6.03;;;2.10;;
16839;SDS011;8536;52.150;11.572;2023-03-04T05:04:02;7.10;;;2.27;;
16839;SDS011;8536;52.150;11.572;2023-03-04T05:06:29;10.87;;;1.80;;
16839;SDS011;8536;52.150;11.572;2023-03-04T05:08:55;7.10;;;2.23;;
16839;SDS011;8536;52.150;11.572;2023-03-04T05:11:22;6.00;;;1.87;;
16839;SDS011;8536;52.150;11.572;2023-03-04T05:13:48;8.37;;;2.40;;
16839;SDS011;8536;52.150;11.572;2023-03-04T05:16:15;7.27;;;1.73;;
16839;SDS011;8536;52.150;11.572;2023-03-04T05:18:43;6.30;;;1.80;;
16839;SDS011;8536;52.150;11.572;2023-03-04T05:21:09;7.07;;;2.20;;
16839;SDS011;8536;52.150;11.572;2023-03-04T05:23:37;9.93;;;2.37;;
16839;SDS011;8536;52.150;11.572;2023-03-04T05:26:05;5.53;;;1.80;;
16839;SDS011;8536;52.150;11.572;2023-03-04T05:28:33;9.93;;;2.20;;
16839;SDS011;8536;52.150;11.572;2023-03-04T05:31:00;4.67;;;1.70;;
16839;SDS011;8536;52.150;11.572;2023-03-04T05:33:27;7.40;;;1.80;;
16839;SDS011;8536;52.150;11.572;2023-03-04T05:35:54;6.07;;;1.97;;
16839;SDS011;8536;52.150;11.572;2023-03-04T05:38:21;5.30;;;1.80;;
16839;SDS011;8536;52.150;11.572;2023-03-04T05:40:48;6.27;;;2.20;;
16839;SDS011;8536;52.150;11.572;2023-03-04T05:43:15;6.63;;;1.93;;
16839;SDS011;8536;52.150;11.572;2023-03-04T05:45:42;6.53;;;2.20;;
16839;SDS011;8536;52.150;11.572;2023-03-04T05:48:09;8.40;;;2.20;;
16839;SDS011;8536;52.150;11.572;2023-03-04T05:50:35;4.27;;;1.80;;
16839;SDS011;8536;52.150;11.572;2023-03-04T05:53:02;6.37;;;2.03;;
16839;SDS011;8536;52.150;11.572;2023-03-04T05:55:29;8.50;;;1.90;;
16839;SDS011;8536;52.150;11.572;2023-03-04T05:57:55;4.80;;;2.07;;
16839;SDS011;8536;52.150;11.572;2023-03-04T06:00:23;5.30;;;1.77;;
16839;SDS011;8536;52.150;11.572;2023-03-04T06:02:50;4.83;;;1.83;;
16839;SDS011;8536;52.150;11.572;2023-03-04T06:05:17;4.47;;;1.77;;
16839;SDS011;8536;52.150;11.572;2023-03-04T06:07:44;4.83;;;2.10;;
16839;SDS011;8536;52.150;11.572;2023-03-04T06:10:15;5.43;;;1.73;;
16839;SDS011;8536;52.150;11.572;2023-03-04T06:12:42;5.80;;;2.47;;
16839;SDS011;8536;52.150;11.572;2023-03-04T06:15:09;7.00;;;2.30;;
16839;SDS011;8536;52.150;11.572;2023-03-04T06:17:37;7.00;;;2.10;;
16839;SDS011;8536;52.150;11.572;2023-03-04T06:20:08;8.10;;;2.00;;
16839;SDS011;8536;52.150;11.572;2023-03-04T06:22:36;7.13;;;2.40;;
16839;SDS011;8536;52.150;11.572;2023-03-04T06:25:02;7.23;;;1.87;;
16839;SDS011;8536;52.150;11.572;2023-03-04T06:27:29;6.73;;;2.10;;
16839;SDS011;8536;52.150;11.572;2023-03-04T06:29:56;9.10;;;2.00;;
16839;SDS011;8536;52.150;11.572;2023-03-04T06:32:23;4.70;;;1.60;;
16839;SDS011;8536;52.150;11.572;2023-03-04T06:34:49;6.40;;;2.20;;
16839;SDS011;8536;52.150;11.572;2023-03-04T06:37:16;4.67;;;1.90;;
16839;SDS011;8536;52.150;11.572;2023-03-04T06:39:43;5.43;;;1.93;;
16839;SDS011;8536;52.150;11.572;2023-03-04T06:42:11;6.37;;;2.00;;
16839;SDS011;8536;52.150;11.572;2023-03-04T06:44:37;4.93;;;1.90;;
16839;SDS011;8536;52.150;11.572;2023-03-04T06:47:04;6.27;;;2.10;;
16839;SDS011;8536;52.150;11.572;2023-03-04T06:49:31;5.27;;;2.13;;
16839;SDS011;8536;52.150;11.572;2023-03-04T06:51:57;10.60;;;2.50;;
16839;SDS011;8536;52.150;11.572;2023-03-04T06:54:24;7.60;;;2.37;;
16839;SDS011;8536;52.150;11.572;2023-03-04T06:56:51;7.73;;;1.90;;
16839;SDS011;8536;52.150;11.572;2023-03-04T06:59:17;6.07;;;2.33;;
16839;SDS011;8536;52.150;11.572;2023-03-04T07:01:44;7.53;;;2.50;;
16839;SDS011;8536;52.150;11.572;2023-03-04T07:04:11;5.73;;;2.10;;
16839;SDS011;8536;52.150;11.572;2023-03-04T07:06:39;3.57;;;1.70;;
16839;SDS011;8536;52.150;11.572;2023-03-04T07:09:07;4.77;;;1.70;;
16839;SDS011;8536;52.150;11.572;2023-03-04T07:11:35;4.20;;;2.00;;
16839;SDS011;8536;52.150;11.572;2023-03-04T07:14:02;6.37;;;2.30;;
16839;SDS011;8536;52.150;11.572;2023-03-04T07:16:28;6.03;;;2.03;;
16839;SDS011;8536;52.150;11.572;2023-03-04T07:18:55;3.53;;;1.67;;
16839;SDS011;8536;52.150;11.572;2023-03-04T07:21:22;4.17;;;1.70;;
16839;SDS011;8536;52.150;11.572;2023-03-04T07:23:49;5.10;;;1.90;;
16839;SDS011;8536;52.150;11.572;2023-03-04T07:26:16;4.30;;;1.70;;
16839;SDS011;8536;52.150;11.572;2023-03-04T07:28:43;6.37;;;2.10;;
16839;SDS011;8536;52.150;11.572;2023-03-04T07:31:18;4.10;;;1.80;;
16839;SDS011;8536;52.150;11.572;2023-03-04T07:33:47;5.17;;;1.90;;
16839;SDS011;8536;52.150;11.572;2023-03-04T07:36:14;8.20;;;2.13;;
16839;SDS011;8536;52.150;11.572;2023-03-04T07:38:42;3.23;;;1.73;;
16839;SDS011;8536;52.150;11.572;2023-03-04T07:41:10;3.17;;;1.77;;
16839;SDS011;8536;52.150;11.572;2023-03-04T07:43:36;6.17;;;2.20;;
16839;SDS011;8536;52.150;11.572;2023-03-04T07:46:03;2.73;;;1.87;;
16839;SDS011;8536;52.150;11.572;2023-03-04T07:48:30;5.33;;;1.80;;
16839;SDS011;8536;52.150;11.572;2023-03-04T07:53:34;3.47;;;1.60;;
16839;SDS011;8536;52.150;11.572;2023-03-04T07:56:02;3.27;;;1.67;;
16839;SDS011;8536;52.150;11.572;2023-03-04T07:58:30;3.57;;;1.70;;
16839;SDS011;8536;52.150;11.572;2023-03-04T08:00:56;4.00;;;1.60;;
16839;SDS011;8536;52.150;11.572;2023-03-04T08:03:23;4.60;;;1.50;;
16839;SDS011;8536;52.150;11.572;2023-03-04T08:05:50;5.23;;;2.00;;
16839;SDS011;8536;52.150;11.572;2023-03-04T08:08:17;3.43;;;1.30;;
16839;SDS011;8536;52.150;11.572;2023-03-04T08:10:43;4.30;;;1.57;;
16839;SDS011;8536;52.150;11.572;2023-03-04T08:13:10;2.80;;;1.53;;
16839;SDS011;8536;52.150;11.572;2023-03-04T08:15:40;3.23;;;1.20;;
16839;SDS011;8536;52.150;11.572;2023-03-04T08:18:08;6.13;;;1.17;;
16839;SDS011;8536;52.150;11.572;2023-03-04T08:20:35;3.63;;;1.40;;
16839;SDS011;8536;52.150;11.572;2023-03-04T08:23:01;2.80;;;1.20;;
16839;SDS011;8536;52.150;11.572;2023-03-04T08:25:28;4.03;;;1.57;;
16839;SDS011;8536;52.150;11.572;2023-03-04T08:27:54;2.57;;;1.50;;
16839;SDS011;8536;52.150;11.572;2023-03-04T08:30:21;3.37;;;1.50;;
16839;SDS011;8536;52.150;11.572;2023-03-04T08:32:48;4.13;;;1.50;;
16839;SDS011;8536;52.150;11.572;2023-03-04T08:35:14;2.57;;;1.20;;
16839;SDS011;8536;52.150;11.572;2023-03-04T08:37:44;4.83;;;1.87;;
16839;SDS011;8536;52.150;11.572;2023-03-04T08:40:12;3.30;;;1.40;;
16839;SDS011;8536;52.150;11.572;2023-03-04T08:42:40;4.87;;;1.67;;
16839;SDS011;8536;52.150;11.572;2023-03-04T08:45:07;3.57;;;1.20;;
16839;SDS011;8536;52.150;11.572;2023-03-04T08:47:34;2.23;;;1.20;;
16839;SDS011;8536;52.150;11.572;2023-03-04T08:50:01;1.27;;;1.10;;
16839;SDS011;8536;52.150;11.572;2023-03-04T08:52:29;3.70;;;1.60;;
16839;SDS011;8536;52.150;11.572;2023-03-04T08:54:56;2.20;;;1.50;;
16839;SDS011;8536;52.150;11.572;2023-03-04T08:57:22;3.27;;;1.37;;
16839;SDS011;8536;52.150;11.572;2023-03-04T08:59:49;2.53;;;1.70;;
16839;SDS011;8536;52.150;11.572;2023-03-04T09:02:15;2.93;;;1.90;;
16839;SDS011;8536;52.150;11.572;2023-03-04T09:04:42;4.73;;;1.60;;
16839;SDS011;8536;52.150;11.572;2023-03-04T09:07:09;4.17;;;1.63;;
16839;SDS011;8536;52.150;11.572;2023-03-04T09:09:36;2.13;;;1.60;;
16839;SDS011;8536;52.150;11.572;2023-03-04T09:12:03;3.13;;;1.37;;
16839;SDS011;8536;52.150;11.572;2023-03-04T09:14:29;2.50;;;1.60;;
16839;SDS011;8536;52.150;11.572;2023-03-04T09:16:57;2.43;;;1.33;;
16839;SDS011;8536;52.150;11.572;2023-03-04T09:19:24;2.83;;;1.37;;
16839;SDS011;8536;52.150;11.572;2023-03-04T09:21:52;4.40;;;1.53;;
16839;SDS011;8536;52.150;11.572;2023-03-04T09:24:21;3.50;;;1.13;;
16839;SDS011;8536;52.150;11.572;2023-03-04T09:26:51;2.00;;;1.20;;
16839;SDS011;8536;52.150;11.572;2023-03-04T09:29:19;1.67;;;1.27;;
16839;SDS011;8536;52.150;11.572;2023-03-04T09:31:46;2.23;;;1.30;;
16839;SDS011;8536;52.150;11.572;2023-03-04T09:34:13;3.37;;;1.20;;
16839;SDS011;8536;52.150;11.572;2023-03-04T09:36:39;1.27;;;1.10;;
16839;SDS011;8536;52.150;11.572;2023-03-04T09:39:06;1.37;;;0.80;;
16839;SDS011;8536;52.150;11.572;2023-03-04T09:41:35;1.87;;;1.20;;
16839;SDS011;8536;52.150;11.572;2023-03-04T09:44:39;3.73;;;1.13;;
16839;SDS011;8536;52.150;11.572;2023-03-04T09:47:04;2.97;;;0.90;;
16839;SDS011;8536;52.150;11.572;2023-03-04T09:49:32;2.83;;;1.50;;
16839;SDS011;8536;52.150;11.572;2023-03-04T09:52:11;3.20;;;1.40;;
16839;SDS011;8536;52.150;11.572;2023-03-04T09:57:45;4.27;;;2.30;;
16839;SDS011;8536;52.150;11.572;2023-03-04T10:05:43;3.17;;;2.30;;
16839;SDS011;8536;52.150;11.572;2023-03-04T10:16:39;2.27;;;0.90;;
16839;SDS011;8536;52.150;11.572;2023-03-04T10:21:40;1.00;;;0.67;;
16839;SDS011;8536;52.150;11.572;2023-03-04T10:24:12;1.33;;;0.40;;
16839;SDS011;8536;52.150;11.572;2023-03-04T10:26:43;0.97;;;0.50;;
16839;SDS011;8536;52.150;11.572;2023-03-04T10:29:15;1.63;;;0.60;;
16839;SDS011;8536;52.150;11.572;2023-03-04T10:31:43;2.93;;;0.90;;
16839;SDS011;8536;52.150;11.572;2023-03-04T10:34:12;3.67;;;1.50;;
16839;SDS011;8536;52.150;11.572;2023-03-04T10:37:01;9.80;;;2.30;;
16839;SDS011;8536;52.150;11.572;2023-03-04T10:39:31;7.37;;;2.80;;
16839;SDS011;8536;52.150;11.572;2023-03-04T10:44:25;8.00;;;2.07;;
16839;SDS011;8536;52.150;11.572;2023-03-04T10:46:53;9.60;;;2.43;;
16839;SDS011;8536;52.150;11.572;2023-03-04T10:49:21;6.37;;;1.80;;
16839;SDS011;8536;52.150;11.572;2023-03-04T10:52:00;7.43;;;2.50;;
16839;SDS011;8536;52.150;11.572;2023-03-04T10:54:41;7.87;;;1.80;;
16839;SDS011;8536;52.150;11.572;2023-03-04T10:57:18;8.20;;;1.70;;
16839;SDS011;8536;52.150;11.572;2023-03-04T10:59:54;7.60;;;1.70;;
16839;SDS011;8536;52.150;11.572;2023-03-04T11:02:22;5.77;;;1.43;;
16839;SDS011;8536;52.150;11.572;2023-03-04T11:05:06;6.80;;;1.53;;
16839;SDS011;8536;52.150;11.572;2023-03-04T11:13:05;6.00;;;1.27;;
16839;SDS011;8536;52.150;11.572;2023-03-04T11:15:43;5.73;;;1.57;;
16839;SDS011;8536;52.150;11.572;2023-03-04T11:18:14;5.73;;;1.50;;
16839;SDS011;8536;52.150;11.572;2023-03-04T11:20:42;8.57;;;1.57;;
16839;SDS011;8536;52.150;11.572;2023-03-04T11:23:19;6.13;;;1.87;;
16839;SDS011;8536;52.150;11.572;2023-03-04T11:26:03;9.02;;;1.60;;
16839;SDS011;8536;52.150;11.572;2023-03-04T11:28:43;8.77;;;2.33;;
16839;SDS011;8536;52.150;11.572;2023-03-04T11:31:19;10.33;;;1.67;;
16839;SDS011;8536;52.150;11.572;2023-03-04T11:36:22;7.37;;;2.00;;
16839;SDS011;8536;52.150;11.572;2023-03-04T11:39:19;5.65;;;1.48;;
16839;SDS011;8536;52.150;11.572;2023-03-04T11:41:53;5.73;;;1.73;;
16839;SDS011;8536;52.150;11.572;2023-03-04T11:44:24;5.00;;;1.43;;
16839;SDS011;8536;52.150;11.572;2023-03-04T11:46:53;8.18;;;1.63;;
16839;SDS011;8536;52.150;11.572;2023-03-04T11:57:36;6.67;;;2.23;;
16839;SDS011;8536;52.150;11.572;2023-03-04T12:00:23;10.77;;;2.43;;
16839;SDS011;8536;52.150;11.572;2023-03-04T12:08:27;8.52;;;2.63;;
16839;SDS011;8536;52.150;11.572;2023-03-04T12:11:04;6.03;;;1.33;;
16839;SDS011;8536;52.150;11.572;2023-03-04T12:13:58;3.70;;;0.93;;
16839;SDS011;8536;52.150;11.572;2023-03-04T12:22:01;7.73;;;1.77;;
16839;SDS011;8536;52.150;11.572;2023-03-04T12:24:45;4.33;;;1.53;;
16839;SDS011;8536;52.150;11.572;2023-03-04T12:27:30;5.80;;;1.40;;
16839;SDS011;8536;52.150;11.572;2023-03-04T12:33:09;7.00;;;1.73;;
16839;SDS011;8536;52.150;11.572;2023-03-04T12:46:43;6.57;;;1.47;;
16839;SDS011;8536;52.150;11.572;2023-03-04T12:52:36;5.37;;;1.27;;
16839;SDS011;8536;52.150;11.572;2023-03-04T12:55:41;5.37;;;1.60;;
16839;SDS011;8536;52.150;11.572;2023-03-04T12:58:12;7.33;;;1.07;;
16839;SDS011;8536;52.150;11.572;2023-03-04T13:03:36;4.00;;;1.40;;
16839;SDS011;8536;52.150;11.572;2023-03-04T13:06:12;8.53;;;2.30;;
16839;SDS011;8536;52.150;11.572;2023-03-04T13:08:55;6.93;;;1.83;;
16839;SDS011;8536;52.150;11.572;2023-03-04T13:11:38;8.70;;;2.90;;
16839;SDS011;8536;52.150;11.572;2023-03-04T13:25:29;4.70;;;1.50;;
16839;SDS011;8536;52.150;11.572;2023-03-04T13:38:31;5.57;;;1.70;;
16839;SDS011;8536;52.150;11.572;2023-03-04T13:43:48;5.97;;;1.10;;
16839;SDS011;8536;52.150;11.572;2023-03-04T13:56:35;6.10;;;1.40;;
16839;SDS011;8536;52.150;11.572;2023-03-04T13:59:25;8.85;;;1.55;;
16839;SDS011;8536;52.150;11.572;2023-03-04T14:02:12;5.13;;;1.40;;
16839;SDS011;8536;52.150;11.572;2023-03-04T14:07:24;4.28;;;1.48;;
16839;SDS011;8536;52.150;11.572;2023-03-04T14:12:22;7.43;;;1.60;;
16839;SDS011;8536;52.150;11.572;2023-03-04T14:14:51;6.33;;;1.77;;
16839;SDS011;8536;52.150;11.572;2023-03-04T14:17:20;6.07;;;1.67;;
16839;SDS011;8536;52.150;11.572;2023-03-04T14:19:52;8.33;;;1.60;;
16839;SDS011;8536;52.150;11.572;2023-03-04T14:22:32;6.80;;;1.87;;
16839;SDS011;8536;52.150;11.572;2023-03-04T14:27:41;6.63;;;1.97;;
16839;SDS011;8536;52.150;11.572;2023-03-04T14:30:23;6.07;;;1.53;;
16839;SDS011;8536;52.150;11.572;2023-03-04T14:33:10;5.40;;;1.70;;
16839;SDS011;8536;52.150;11.572;2023-03-04T14:35:48;8.23;;;2.07;;
16839;SDS011;8536;52.150;11.572;2023-03-04T14:38:25;5.77;;;1.77;;
16839;SDS011;8536;52.150;11.572;2023-03-04T14:41:04;10.90;;;1.93;;
16839;SDS011;8536;52.150;11.572;2023-03-04T14:43:35;10.27;;;2.03;;
16839;SDS011;8536;52.150;11.572;2023-03-04T14:46:22;6.60;;;1.80;;
16839;SDS011;8536;52.150;11.572;2023-03-04T14:48:51;8.10;;;1.93;;
16839;SDS011;8536;52.150;11.572;2023-03-04T14:51:29;9.67;;;1.73;;
16839;SDS011;8536;52.150;11.572;2023-03-04T14:54:05;6.82;;;2.28;;
16839;SDS011;8536;52.150;11.572;2023-03-04T14:56:35;4.43;;;1.50;;
16839;SDS011;8536;52.150;11.572;2023-03-04T14:59:02;3.80;;;1.37;;
16839;SDS011;8536;52.150;11.572;2023-03-04T15:01:30;7.83;;;1.60;;
16839;SDS011;8536;52.150;11.572;2023-03-04T15:04:05;4.67;;;1.40;;
16839;SDS011;8536;52.150;11.572;2023-03-04T15:06:37;3.80;;;1.57;;
16839;SDS011;8536;52.150;11.572;2023-03-04T15:11:47;8.70;;;1.70;;
16839;SDS011;8536;52.150;11.572;2023-03-04T15:17:22;8.67;;;1.87;;
16839;SDS011;8536;52.150;11.572;2023-03-04T15:19:59;10.50;;;2.50;;
16839;SDS011;8536;52.150;11.572;2023-03-04T15:22:55;7.47;;;1.77;;
16839;SDS011;8536;52.150;11.572;2023-03-04T15:25:22;8.40;;;2.37;;
16839;SDS011;8536;52.150;11.572;2023-03-04T15:27:49;10.90;;;2.70;;
16839;SDS011;8536;52.150;11.572;2023-03-04T15:30:17;11.07;;;2.70;;
16839;SDS011;8536;52.150;11.572;2023-03-04T15:32:51;11.17;;;2.63;;
16839;SDS011;8536;52.150;11.572;2023-03-04T15:35:17;11.13;;;2.73;;
16839;SDS011;8536;52.150;11.572;2023-03-04T15:37:45;7.10;;;2.37;;
16839;SDS011;8536;52.150;11.572;2023-03-04T15:40:17;7.00;;;2.00;;
16839;SDS011;8536;52.150;11.572;2023-03-04T15:42:48;12.50;;;2.50;;
16839;SDS011;8536;52.150;11.572;2023-03-04T15:45:23;9.27;;;2.73;;
16839;SDS011;8536;52.150;11.572;2023-03-04T15:47:51;9.33;;;2.90;;
16839;SDS011;8536;52.150;11.572;2023-03-04T15:50:19;8.90;;;2.03;;
16839;SDS011;8536;52.150;11.572;2023-03-04T15:52:46;7.93;;;2.17;;
16839;SDS011;8536;52.150;11.572;2023-03-04T15:55:17;13.83;;;2.83;;
16839;SDS011;8536;52.150;11.572;2023-03-04T15:57:45;12.77;;;3.03;;
16839;SDS011;8536;52.150;11.572;2023-03-04T16:00:14;8.03;;;2.03;;
16839;SDS011;8536;52.150;11.572;2023-03-04T16:02:41;9.97;;;2.33;;
16839;SDS011;8536;52.150;11.572;2023-03-04T16:05:08;5.07;;;1.93;;
16839;SDS011;8536;52.150;11.572;2023-03-04T16:07:36;9.40;;;2.17;;
16839;SDS011;8536;52.150;11.572;2023-03-04T16:10:04;8.60;;;1.67;;
16839;SDS011;8536;52.150;11.572;2023-03-04T16:12:33;7.17;;;1.90;;
16839;SDS011;8536;52.150;11.572;2023-03-04T16:15:00;11.50;;;3.00;;
16839;SDS011;8536;52.150;11.572;2023-03-04T16:17:27;10.97;;;2.80;;
16839;SDS011;8536;52.150;11.572;2023-03-04T16:19:53;8.27;;;2.30;;
16839;SDS011;8536;52.150;11.572;2023-03-04T16:22:21;9.07;;;2.50;;
16839;SDS011;8536;52.150;11.572;2023-03-04T16:24:49;9.07;;;1.93;;
16839;SDS011;8536;52.150;11.572;2023-03-04T16:27:16;12.33;;;2.50;;
16839;SDS011;8536;52.150;11.572;2023-03-04T16:29:44;8.80;;;2.40;;
16839;SDS011;8536;52.150;11.572;2023-03-04T16:32:11;9.07;;;2.43;;
16839;SDS011;8536;52.150;11.572;2023-03-04T16:34:38;8.27;;;2.37;;
16839;SDS011;8536;52.150;11.572;2023-03-04T16:37:06;7.40;;;2.17;;
16839;SDS011;8536;52.150;11.572;2023-03-04T16:39:37;8.50;;;1.77;;
16839;SDS011;8536;52.150;11.572;2023-03-04T16:42:07;7.60;;;2.40;;
16839;SDS011;8536;52.150;11.572;2023-03-04T16:44:38;7.80;;;2.10;;
16839;SDS011;8536;52.150;11.572;2023-03-04T16:47:05;11.93;;;2.67;;
16839;SDS011;8536;52.150;11.572;2023-03-04T16:49:33;8.23;;;2.80;;
16839;SDS011;8536;52.150;11.572;2023-03-04T16:51:59;7.13;;;2.23;;
16839;SDS011;8536;52.150;11.572;2023-03-04T16:54:27;9.40;;;2.33;;
16839;SDS011;8536;52.150;11.572;2023-03-04T16:56:56;7.83;;;2.07;;
16839;SDS011;8536;52.150;11.572;2023-03-04T16:59:24;7.63;;;2.07;;
16839;SDS011;8536;52.150;11.572;2023-03-04T17:01:51;7.23;;;2.33;;
16839;SDS011;8536;52.150;11.572;2023-03-04T17:04:19;8.20;;;2.50;;
16839;SDS011;8536;52.150;11.572;2023-03-04T17:06:45;10.87;;;2.43;;